sensor_id;sensor_type;location;lat;lon;timestamp;P1;durP1;ratioP1;P2;durP2;ratioP2
26696;SDS011;14312;52.614;13.496;2023-06-01T00:02:45;2.15;;;1.40;;
26696;SDS011;14312;52.614;13.496;2023-06-01T00:05:31;3.05;;;1.42;;
26696;SDS011;14312;52.614;13.496;2023-06-01T00:08:17;1.25;;;1.15;;
26696;SDS011;14312;52.614;13.496;2023-06-01T00:11:03;1.73;;;1.40;;
26696;SDS011;14312;52.614;13.496;2023-06-01T00:13:50;1.50;;;1.40;;
26696;SDS011;14312;52.614;13.496;2023-06-01T00:16:36;1.70;;;1.33;;
26696;SDS011;14312;52.614;13.496;2023-06-01T00:19:22;1.42;;;1.33;;
26696;SDS011;14312;52.614;13.496;2023-06-01T00:22:10;2.20;;;1.35;;
26696;SDS011;14312;52.614;13.496;2023-06-01T00:24:57;1.85;;;1.42;;
26696;SDS011;14312;52.614;13.496;2023-06-01T00:27:43;1.98;;;1.40;;
26696;SDS011;14312;52.614;13.496;2023-06-01T00:30:29;1.40;;;1.17;;
26696;SDS011;14312;52.614;13.496;2023-06-01T00:33:14;1.88;;;1.67;;
26696;SDS011;14312;52.614;13.496;2023-06-01T00:36:01;1.38;;;1.27;;
26696;SDS011;14312;52.614;13.496;2023-06-01T00:38:47;1.80;;;1.50;;
26696;SDS011;14312;52.614;13.496;2023-06-01T00:41:33;2.53;;;1.30;;
26696;SDS011;14312;52.614;13.496;2023-06-01T00:44:19;2.42;;;1.13;;
26696;SDS011;14312;52.614;13.496;2023-06-01T00:47:05;1.85;;;1.45;;
26696;SDS011;14312;52.614;13.496;2023-06-01T00:49:51;1.63;;;1.23;;
26696;SDS011;14312;52.614;13.496;2023-06-01T00:52:37;1.50;;;1.20;;
26696;SDS011;14312;52.614;13.496;2023-06-01T00:55:24;1.60;;;1.20;;
26696;SDS011;14312;52.614;13.496;2023-06-01T00:58:11;2.30;;;1.50;;
26696;SDS011;14312;52.614;13.496;2023-06-01T01:00:57;1.58;;;1.23;;
26696;SDS011;14312;52.614;13.496;2023-06-01T01:03:47;1.20;;;1.10;;
26696;SDS011;14312;52.614;13.496;2023-06-01T01:06:51;2.58;;;1.42;;
26696;SDS011;14312;52.614;13.496;2023-06-01T01:10:00;1.45;;;1.35;;
26696;SDS011;14312;52.614;13.496;2023-06-01T01:12:55;1.42;;;1.33;;
26696;SDS011;14312;52.614;13.496;2023-06-01T01:19:11;1.75;;;1.38;;
26696;SDS011;14312;52.614;13.496;2023-06-01T01:25:25;1.55;;;1.42;;
26696;SDS011;14312;52.614;13.496;2023-06-01T01:28:35;2.25;;;1.42;;
26696;SDS011;14312;52.614;13.496;2023-06-01T01:31:23;1.40;;;1.30;;
26696;SDS011;14312;52.614;13.496;2023-06-01T01:34:10;1.20;;;1.10;;
26696;SDS011;14312;52.614;13.496;2023-06-01T01:36:56;1.50;;;1.40;;
26696;SDS011;14312;52.614;13.496;2023-06-01T01:39:43;2.05;;;1.45;;
26696;SDS011;14312;52.614;13.496;2023-06-01T01:42:29;1.52;;;1.42;;
26696;SDS011;14312;52.614;13.496;2023-06-01T01:45:15;3.47;;;1.48;;
26696;SDS011;14312;52.614;13.496;2023-06-01T01:48:10;1.63;;;1.52;;
26696;SDS011;14312;52.614;13.496;2023-06-01T01:51:04;1.52;;;1.33;;
26696;SDS011;14312;52.614;13.496;2023-06-01T01:54:04;1.40;;;1.30;;
26696;SDS011;14312;52.614;13.496;2023-06-01T01:56:53;1.70;;;1.50;;
26696;SDS011;14312;52.614;13.496;2023-06-01T01:59:42;1.45;;;1.35;;
26696;SDS011;14312;52.614;13.496;2023-06-01T02:02:29;1.58;;;1.48;;
26696;SDS011;14312;52.614;13.496;2023-06-01T02:05:16;1.80;;;1.70;;
26696;SDS011;14312;52.614;13.496;2023-06-01T02:08:01;2.13;;;1.55;;
26696;SDS011;14312;52.614;13.496;2023-06-01T02:10:47;2.03;;;1.50;;
26696;SDS011;14312;52.614;13.496;2023-06-01T02:13:33;1.80;;;1.50;;
26696;SDS011;14312;52.614;13.496;2023-06-01T02:16:19;2.28;;;1.50;;
26696;SDS011;14312;52.614;13.496;2023-06-01T02:19:07;1.77;;;1.50;;
26696;SDS011;14312;52.614;13.496;2023-06-01T02:21:56;1.60;;;1.50;;
26696;SDS011;14312;52.614;13.496;2023-06-01T02:24:42;2.78;;;1.52;;
26696;SDS011;14312;52.614;13.496;2023-06-01T02:27:28;1.60;;;1.40;;
26696;SDS011;14312;52.614;13.496;2023-06-01T02:30:14;2.05;;;1.50;;
26696;SDS011;14312;52.614;13.496;2023-06-01T02:33:00;1.63;;;1.52;;
26696;SDS011;14312;52.614;13.496;2023-06-01T02:35:46;2.05;;;1.42;;
26696;SDS011;14312;52.614;13.496;2023-06-01T02:38:32;1.42;;;1.23;;
26696;SDS011;14312;52.614;13.496;2023-06-01T02:41:18;1.60;;;1.50;;
26696;SDS011;14312;52.614;13.496;2023-06-01T02:44:04;1.73;;;1.33;;
26696;SDS011;14312;52.614;13.496;2023-06-01T02:46:50;2.15;;;1.40;;
26696;SDS011;14312;52.614;13.496;2023-06-01T02:49:36;1.42;;;1.33;;
26696;SDS011;14312;52.614;13.496;2023-06-01T02:52:22;1.58;;;1.40;;
26696;SDS011;14312;52.614;13.496;2023-06-01T02:55:08;1.92;;;1.40;;
26696;SDS011;14312;52.614;13.496;2023-06-01T02:57:54;2.28;;;1.83;;
26696;SDS011;14312;52.614;13.496;2023-06-01T03:00:40;2.22;;;1.92;;
26696;SDS011;14312;52.614;13.496;2023-06-01T03:03:26;1.67;;;1.58;;
26696;SDS011;14312;52.614;13.496;2023-06-01T03:06:12;1.70;;;1.50;;
26696;SDS011;14312;52.614;13.496;2023-06-01T03:08:58;1.75;;;1.55;;
26696;SDS011;14312;52.614;13.496;2023-06-01T03:11:44;1.77;;;1.60;;
26696;SDS011;14312;52.614;13.496;2023-06-01T03:14:30;2.00;;;1.58;;
26696;SDS011;14312;52.614;13.496;2023-06-01T03:17:16;2.05;;;1.55;;
26696;SDS011;14312;52.614;13.496;2023-06-01T03:20:02;1.85;;;1.73;;
26696;SDS011;14312;52.614;13.496;2023-06-01T03:22:49;1.65;;;1.52;;
26696;SDS011;14312;52.614;13.496;2023-06-01T03:25:35;2.42;;;1.85;;
26696;SDS011;14312;52.614;13.496;2023-06-01T03:28:21;2.95;;;1.73;;
26696;SDS011;14312;52.614;13.496;2023-06-01T03:31:06;1.77;;;1.55;;
26696;SDS011;14312;52.614;13.496;2023-06-01T03:33:53;2.20;;;1.80;;
26696;SDS011;14312;52.614;13.496;2023-06-01T03:36:39;1.95;;;1.85;;
26696;SDS011;14312;52.614;13.496;2023-06-01T03:39:25;1.70;;;1.60;;
26696;SDS011;14312;52.614;13.496;2023-06-01T03:42:11;2.10;;;1.58;;
26696;SDS011;14312;52.614;13.496;2023-06-01T03:44:57;1.77;;;1.65;;
26696;SDS011;14312;52.614;13.496;2023-06-01T03:47:43;2.08;;;1.80;;
26696;SDS011;14312;52.614;13.496;2023-06-01T03:50:30;2.33;;;1.80;;
26696;SDS011;14312;52.614;13.496;2023-06-01T03:53:16;3.28;;;2.20;;
26696;SDS011;14312;52.614;13.496;2023-06-01T03:56:02;2.78;;;2.13;;
26696;SDS011;14312;52.614;13.496;2023-06-01T03:58:49;3.72;;;2.03;;
26696;SDS011;14312;52.614;13.496;2023-06-01T04:01:36;2.65;;;2.15;;
26696;SDS011;14312;52.614;13.496;2023-06-01T04:04:25;2.30;;;1.90;;
26696;SDS011;14312;52.614;13.496;2023-06-01T04:07:14;2.30;;;2.10;;
26696;SDS011;14312;52.614;13.496;2023-06-01T04:10:03;2.45;;;2.10;;
26696;SDS011;14312;52.614;13.496;2023-06-01T04:12:50;2.28;;;2.05;;
26696;SDS011;14312;52.614;13.496;2023-06-01T04:15:36;4.03;;;2.30;;
26696;SDS011;14312;52.614;13.496;2023-06-01T04:18:25;2.95;;;2.15;;
26696;SDS011;14312;52.614;13.496;2023-06-01T04:21:11;4.07;;;2.58;;
26696;SDS011;14312;52.614;13.496;2023-06-01T04:23:57;2.72;;;2.05;;
26696;SDS011;14312;52.614;13.496;2023-06-01T04:26:43;3.90;;;2.30;;
26696;SDS011;14312;52.614;13.496;2023-06-01T04:29:30;3.65;;;2.10;;
26696;SDS011;14312;52.614;13.496;2023-06-01T04:32:16;4.22;;;2.35;;
26696;SDS011;14312;52.614;13.496;2023-06-01T04:35:07;4.18;;;2.78;;
26696;SDS011;14312;52.614;13.496;2023-06-01T04:37:53;3.13;;;2.67;;
26696;SDS011;14312;52.614;13.496;2023-06-01T04:40:40;3.35;;;2.80;;
26696;SDS011;14312;52.614;13.496;2023-06-01T04:43:27;3.75;;;2.90;;
26696;SDS011;14312;52.614;13.496;2023-06-01T04:46:13;3.45;;;2.60;;
26696;SDS011;14312;52.614;13.496;2023-06-01T04:48:59;5.35;;;3.72;;
26696;SDS011;14312;52.614;13.496;2023-06-01T04:51:46;4.72;;;3.17;;
26696;SDS011;14312;52.614;13.496;2023-06-01T04:54:36;3.13;;;2.70;;
26696;SDS011;14312;52.614;13.496;2023-06-01T04:57:22;3.67;;;3.00;;
26696;SDS011;14312;52.614;13.496;2023-06-01T05:00:09;4.20;;;2.85;;
26696;SDS011;14312;52.614;13.496;2023-06-01T05:02:58;3.38;;;2.78;;
26696;SDS011;14312;52.614;13.496;2023-06-01T05:05:45;3.65;;;3.35;;
26696;SDS011;14312;52.614;13.496;2023-06-01T05:08:31;4.40;;;3.28;;
26696;SDS011;14312;52.614;13.496;2023-06-01T05:11:19;4.53;;;3.25;;
26696;SDS011;14312;52.614;13.496;2023-06-01T05:14:05;5.28;;;3.30;;
26696;SDS011;14312;52.614;13.496;2023-06-01T05:16:51;3.88;;;2.80;;
26696;SDS011;14312;52.614;13.496;2023-06-01T05:19:37;5.55;;;3.33;;
26696;SDS011;14312;52.614;13.496;2023-06-01T05:22:23;3.75;;;3.20;;
26696;SDS011;14312;52.614;13.496;2023-06-01T05:25:09;3.55;;;3.05;;
26696;SDS011;14312;52.614;13.496;2023-06-01T05:27:56;4.80;;;2.90;;
26696;SDS011;14312;52.614;13.496;2023-06-01T05:30:42;3.10;;;2.63;;
26696;SDS011;14312;52.614;13.496;2023-06-01T05:33:28;5.43;;;3.35;;
26696;SDS011;14312;52.614;13.496;2023-06-01T05:36:14;4.07;;;3.05;;
26696;SDS011;14312;52.614;13.496;2023-06-01T05:38:59;3.92;;;2.80;;
26696;SDS011;14312;52.614;13.496;2023-06-01T05:41:45;3.20;;;2.50;;
26696;SDS011;14312;52.614;13.496;2023-06-01T05:44:31;5.68;;;3.38;;
26696;SDS011;14312;52.614;13.496;2023-06-01T05:47:17;4.75;;;3.03;;
26696;SDS011;14312;52.614;13.496;2023-06-01T05:50:04;3.38;;;2.72;;
26696;SDS011;14312;52.614;13.496;2023-06-01T05:52:50;4.70;;;3.53;;
26696;SDS011;14312;52.614;13.496;2023-06-01T05:55:36;5.72;;;3.55;;
26696;SDS011;14312;52.614;13.496;2023-06-01T05:58:22;4.40;;;3.13;;
26696;SDS011;14312;52.614;13.496;2023-06-01T06:01:08;3.85;;;2.92;;
26696;SDS011;14312;52.614;13.496;2023-06-01T06:03:55;3.97;;;2.92;;
26696;SDS011;14312;52.614;13.496;2023-06-01T06:06:42;3.28;;;2.72;;
26696;SDS011;14312;52.614;13.496;2023-06-01T06:09:28;3.25;;;2.63;;
26696;SDS011;14312;52.614;13.496;2023-06-01T06:12:14;5.07;;;3.10;;
26696;SDS011;14312;52.614;13.496;2023-06-01T06:15:00;5.38;;;3.05;;
26696;SDS011;14312;52.614;13.496;2023-06-01T06:17:46;2.80;;;2.60;;
26696;SDS011;14312;52.614;13.496;2023-06-01T06:20:32;3.67;;;3.00;;
26696;SDS011;14312;52.614;13.496;2023-06-01T06:23:18;2.90;;;2.60;;
26696;SDS011;14312;52.614;13.496;2023-06-01T06:26:04;3.17;;;2.83;;
26696;SDS011;14312;52.614;13.496;2023-06-01T06:28:50;3.38;;;2.83;;
26696;SDS011;14312;52.614;13.496;2023-06-01T06:31:36;4.93;;;2.80;;
26696;SDS011;14312;52.614;13.496;2023-06-01T06:34:22;4.28;;;3.33;;
26696;SDS011;14312;52.614;13.496;2023-06-01T06:37:08;3.35;;;2.65;;
26696;SDS011;14312;52.614;13.496;2023-06-01T06:39:56;2.85;;;2.58;;
26696;SDS011;14312;52.614;13.496;2023-06-01T06:42:42;4.78;;;2.90;;
26696;SDS011;14312;52.614;13.496;2023-06-01T06:45:28;3.40;;;2.65;;
26696;SDS011;14312;52.614;13.496;2023-06-01T06:48:14;3.35;;;2.80;;
26696;SDS011;14312;52.614;13.496;2023-06-01T06:51:01;4.78;;;2.42;;
26696;SDS011;14312;52.614;13.496;2023-06-01T06:53:47;3.35;;;2.47;;
26696;SDS011;14312;52.614;13.496;2023-06-01T06:56:33;3.92;;;2.63;;
26696;SDS011;14312;52.614;13.496;2023-06-01T06:59:19;4.82;;;3.22;;
26696;SDS011;14312;52.614;13.496;2023-06-01T07:02:05;5.15;;;3.33;;
26696;SDS011;14312;52.614;13.496;2023-06-01T07:04:51;3.60;;;2.78;;
26696;SDS011;14312;52.614;13.496;2023-06-01T07:07:38;3.60;;;2.72;;
26696;SDS011;14312;52.614;13.496;2023-06-01T07:10:26;3.42;;;2.40;;
26696;SDS011;14312;52.614;13.496;2023-06-01T07:13:12;3.20;;;2.90;;
26696;SDS011;14312;52.614;13.496;2023-06-01T07:15:58;2.90;;;2.58;;
26696;SDS011;14312;52.614;13.496;2023-06-01T07:18:44;4.70;;;3.05;;
26696;SDS011;14312;52.614;13.496;2023-06-01T07:21:30;5.85;;;3.15;;
26696;SDS011;14312;52.614;13.496;2023-06-01T07:24:17;5.80;;;3.10;;
26696;SDS011;14312;52.614;13.496;2023-06-01T07:27:06;6.05;;;3.22;;
26696;SDS011;14312;52.614;13.496;2023-06-01T07:29:53;2.92;;;2.63;;
26696;SDS011;14312;52.614;13.496;2023-06-01T07:32:42;3.90;;;2.58;;
26696;SDS011;14312;52.614;13.496;2023-06-01T07:35:28;5.22;;;3.20;;
26696;SDS011;14312;52.614;13.496;2023-06-01T07:38:15;5.13;;;3.00;;
26696;SDS011;14312;52.614;13.496;2023-06-01T07:41:01;3.97;;;2.97;;
26696;SDS011;14312;52.614;13.496;2023-06-01T07:43:47;3.92;;;3.13;;
26696;SDS011;14312;52.614;13.496;2023-06-01T07:46:33;4.55;;;2.95;;
26696;SDS011;14312;52.614;13.496;2023-06-01T07:49:19;6.90;;;3.53;;
26696;SDS011;14312;52.614;13.496;2023-06-01T07:52:05;4.90;;;3.30;;
26696;SDS011;14312;52.614;13.496;2023-06-01T07:54:52;4.70;;;3.13;;
26696;SDS011;14312;52.614;13.496;2023-06-01T07:57:37;4.72;;;3.17;;
26696;SDS011;14312;52.614;13.496;2023-06-01T08:00:23;3.42;;;2.58;;
26696;SDS011;14312;52.614;13.496;2023-06-01T08:03:11;5.00;;;2.90;;
26696;SDS011;14312;52.614;13.496;2023-06-01T08:05:56;4.57;;;3.20;;
26696;SDS011;14312;52.614;13.496;2023-06-01T08:08:45;6.28;;;3.55;;
26696;SDS011;14312;52.614;13.496;2023-06-01T08:11:32;4.57;;;3.10;;
26696;SDS011;14312;52.614;13.496;2023-06-01T08:14:18;4.45;;;3.40;;
26696;SDS011;14312;52.614;13.496;2023-06-01T08:17:04;4.03;;;3.08;;
26696;SDS011;14312;52.614;13.496;2023-06-01T08:19:52;4.65;;;3.17;;
26696;SDS011;14312;52.614;13.496;2023-06-01T08:22:39;3.35;;;2.78;;
26696;SDS011;14312;52.614;13.496;2023-06-01T08:25:26;5.00;;;3.10;;
26696;SDS011;14312;52.614;13.496;2023-06-01T08:28:12;4.32;;;3.03;;
26696;SDS011;14312;52.614;13.496;2023-06-01T08:30:58;3.20;;;2.88;;
26696;SDS011;14312;52.614;13.496;2023-06-01T08:33:44;3.67;;;2.53;;
26696;SDS011;14312;52.614;13.496;2023-06-01T08:36:31;3.35;;;2.30;;
26696;SDS011;14312;52.614;13.496;2023-06-01T08:39:20;4.05;;;2.70;;
26696;SDS011;14312;52.614;13.496;2023-06-01T08:42:14;3.30;;;2.83;;
26696;SDS011;14312;52.614;13.496;2023-06-01T08:45:11;3.22;;;2.80;;
26696;SDS011;14312;52.614;13.496;2023-06-01T08:47:58;3.63;;;2.53;;
26696;SDS011;14312;52.614;13.496;2023-06-01T08:50:48;4.47;;;2.92;;
26696;SDS011;14312;52.614;13.496;2023-06-01T08:53:36;3.05;;;2.47;;
26696;SDS011;14312;52.614;13.496;2023-06-01T08:56:27;2.70;;;2.50;;
26696;SDS011;14312;52.614;13.496;2023-06-01T08:59:13;4.07;;;2.65;;
26696;SDS011;14312;52.614;13.496;2023-06-01T09:02:00;3.83;;;2.85;;
26696;SDS011;14312;52.614;13.496;2023-06-01T09:04:46;3.42;;;2.45;;
26696;SDS011;14312;52.614;13.496;2023-06-01T09:07:32;4.28;;;2.92;;
26696;SDS011;14312;52.614;13.496;2023-06-01T09:10:22;2.83;;;2.55;;
26696;SDS011;14312;52.614;13.496;2023-06-01T09:13:11;4.57;;;2.90;;
26696;SDS011;14312;52.614;13.496;2023-06-01T09:15:57;3.10;;;2.38;;
26696;SDS011;14312;52.614;13.496;2023-06-01T09:18:52;3.15;;;2.70;;
26696;SDS011;14312;52.614;13.496;2023-06-01T09:21:40;2.72;;;2.47;;
26696;SDS011;14312;52.614;13.496;2023-06-01T09:24:54;3.53;;;2.20;;
26696;SDS011;14312;52.614;13.496;2023-06-01T09:27:51;3.45;;;2.50;;
26696;SDS011;14312;52.614;13.496;2023-06-01T09:30:39;3.60;;;2.83;;
26696;SDS011;14312;52.614;13.496;2023-06-01T09:33:30;2.80;;;2.50;;
26696;SDS011;14312;52.614;13.496;2023-06-01T09:36:23;3.63;;;2.50;;
26696;SDS011;14312;52.614;13.496;2023-06-01T09:39:10;3.83;;;3.10;;
26696;SDS011;14312;52.614;13.496;2023-06-01T09:41:58;3.00;;;2.67;;
26696;SDS011;14312;52.614;13.496;2023-06-01T09:44:45;3.88;;;2.80;;
26696;SDS011;14312;52.614;13.496;2023-06-01T09:47:31;2.95;;;2.60;;
26696;SDS011;14312;52.614;13.496;2023-06-01T09:50:37;3.42;;;2.88;;
26696;SDS011;14312;52.614;13.496;2023-06-01T09:53:24;3.45;;;2.80;;
26696;SDS011;14312;52.614;13.496;2023-06-01T09:56:11;3.40;;;2.70;;
26696;SDS011;14312;52.614;13.496;2023-06-01T09:58:58;2.78;;;2.28;;
26696;SDS011;14312;52.614;13.496;2023-06-01T10:01:44;3.78;;;2.40;;
26696;SDS011;14312;52.614;13.496;2023-06-01T10:04:37;3.15;;;2.53;;
26696;SDS011;14312;52.614;13.496;2023-06-01T10:07:28;5.00;;;2.90;;
26696;SDS011;14312;52.614;13.496;2023-06-01T10:10:16;3.22;;;2.78;;
26696;SDS011;14312;52.614;13.496;2023-06-01T10:13:02;4.20;;;2.75;;
26696;SDS011;14312;52.614;13.496;2023-06-01T10:15:48;3.30;;;2.72;;
26696;SDS011;14312;52.614;13.496;2023-06-01T10:18:35;3.50;;;2.72;;
26696;SDS011;14312;52.614;13.496;2023-06-01T10:21:22;3.15;;;2.20;;
26696;SDS011;14312;52.614;13.496;2023-06-01T10:24:09;3.50;;;2.17;;
26696;SDS011;14312;52.614;13.496;2023-06-01T10:27:09;2.80;;;2.40;;
26696;SDS011;14312;52.614;13.496;2023-06-01T10:30:21;3.83;;;2.80;;
26696;SDS011;14312;52.614;13.496;2023-06-01T10:33:07;2.38;;;2.17;;
26696;SDS011;14312;52.614;13.496;2023-06-01T10:35:53;3.20;;;2.90;;
26696;SDS011;14312;52.614;13.496;2023-06-01T10:38:39;3.78;;;2.85;;
26696;SDS011;14312;52.614;13.496;2023-06-01T10:41:26;4.05;;;2.60;;
26696;SDS011;14312;52.614;13.496;2023-06-01T10:47:43;3.60;;;2.58;;
26696;SDS011;14312;52.614;13.496;2023-06-01T10:50:29;2.60;;;2.40;;
26696;SDS011;14312;52.614;13.496;2023-06-01T10:53:23;2.75;;;2.25;;
26696;SDS011;14312;52.614;13.496;2023-06-01T10:56:25;3.58;;;2.38;;
26696;SDS011;14312;52.614;13.496;2023-06-01T10:59:12;3.28;;;2.75;;
26696;SDS011;14312;52.614;13.496;2023-06-01T11:02:02;3.08;;;2.72;;
26696;SDS011;14312;52.614;13.496;2023-06-01T11:04:49;3.42;;;2.80;;
26696;SDS011;14312;52.614;13.496;2023-06-01T11:07:35;2.88;;;2.58;;
26696;SDS011;14312;52.614;13.496;2023-06-01T11:14:08;4.57;;;3.55;;
26696;SDS011;14312;52.614;13.496;2023-06-01T11:17:24;2.92;;;2.60;;
26696;SDS011;14312;52.614;13.496;2023-06-01T11:20:13;3.22;;;2.92;;
26696;SDS011;14312;52.614;13.496;2023-06-01T11:23:00;3.53;;;3.20;;
26696;SDS011;14312;52.614;13.496;2023-06-01T11:25:46;5.68;;;3.15;;
26696;SDS011;14312;52.614;13.496;2023-06-01T11:28:34;3.92;;;3.30;;
26696;SDS011;14312;52.614;13.496;2023-06-01T11:31:20;4.80;;;3.53;;
26696;SDS011;14312;52.614;13.496;2023-06-01T11:34:07;5.35;;;3.63;;
26696;SDS011;14312;52.614;13.496;2023-06-01T11:36:54;3.30;;;3.00;;
26696;SDS011;14312;52.614;13.496;2023-06-01T11:39:42;3.80;;;3.50;;
26696;SDS011;14312;52.614;13.496;2023-06-01T11:42:34;4.07;;;3.65;;
26696;SDS011;14312;52.614;13.496;2023-06-01T11:45:20;4.35;;;3.45;;
26696;SDS011;14312;52.614;13.496;2023-06-01T11:48:09;3.83;;;3.53;;
26696;SDS011;14312;52.614;13.496;2023-06-01T11:50:57;4.68;;;3.42;;
26696;SDS011;14312;52.614;13.496;2023-06-01T11:53:46;4.15;;;3.03;;
26696;SDS011;14312;52.614;13.496;2023-06-01T11:56:33;4.20;;;3.65;;
26696;SDS011;14312;52.614;13.496;2023-06-01T11:59:21;5.20;;;3.75;;
26696;SDS011;14312;52.614;13.496;2023-06-01T12:05:08;3.35;;;3.05;;
26696;SDS011;14312;52.614;13.496;2023-06-01T12:07:54;4.82;;;3.63;;
26696;SDS011;14312;52.614;13.496;2023-06-01T12:10:44;3.50;;;3.20;;
26696;SDS011;14312;52.614;13.496;2023-06-01T12:13:33;4.22;;;3.55;;
26696;SDS011;14312;52.614;13.496;2023-06-01T12:16:19;4.00;;;3.60;;
26696;SDS011;14312;52.614;13.496;2023-06-01T12:19:10;4.35;;;3.50;;
26696;SDS011;14312;52.614;13.496;2023-06-01T12:21:57;5.70;;;4.03;;
26696;SDS011;14312;52.614;13.496;2023-06-01T12:24:43;4.15;;;3.80;;
26696;SDS011;14312;52.614;13.496;2023-06-01T12:27:30;4.32;;;3.90;;
26696;SDS011;14312;52.614;13.496;2023-06-01T12:30:21;5.57;;;4.10;;
26696;SDS011;14312;52.614;13.496;2023-06-01T12:33:08;5.13;;;3.80;;
26696;SDS011;14312;52.614;13.496;2023-06-01T12:35:54;4.22;;;3.83;;
26696;SDS011;14312;52.614;13.496;2023-06-01T12:38:52;4.18;;;3.80;;
26696;SDS011;14312;52.614;13.496;2023-06-01T12:41:46;4.22;;;3.70;;
26696;SDS011;14312;52.614;13.496;2023-06-01T12:44:33;4.50;;;3.65;;
26696;SDS011;14312;52.614;13.496;2023-06-01T12:47:19;5.10;;;3.40;;
26696;SDS011;14312;52.614;13.496;2023-06-01T12:50:07;3.50;;;3.17;;
26696;SDS011;14312;52.614;13.496;2023-06-01T12:52:57;4.68;;;3.53;;
26696;SDS011;14312;52.614;13.496;2023-06-01T12:55:43;3.40;;;3.10;;
26696;SDS011;14312;52.614;13.496;2023-06-01T12:58:29;3.25;;;2.95;;
26696;SDS011;14312;52.614;13.496;2023-06-01T13:01:15;4.43;;;3.58;;
26696;SDS011;14312;52.614;13.496;2023-06-01T13:04:01;5.25;;;3.08;;
26696;SDS011;14312;52.614;13.496;2023-06-01T13:06:49;3.70;;;3.20;;
26696;SDS011;14312;52.614;13.496;2023-06-01T13:09:35;2.78;;;2.58;;
26696;SDS011;14312;52.614;13.496;2023-06-01T13:12:21;3.70;;;3.00;;
26696;SDS011;14312;52.614;13.496;2023-06-01T13:15:07;3.13;;;2.70;;
26696;SDS011;14312;52.614;13.496;2023-06-01T13:17:54;3.45;;;3.15;;
26696;SDS011;14312;52.614;13.496;2023-06-01T13:20:41;3.10;;;2.78;;
26696;SDS011;14312;52.614;13.496;2023-06-01T13:23:27;3.63;;;3.13;;
26696;SDS011;14312;52.614;13.496;2023-06-01T13:26:14;3.30;;;2.80;;
26696;SDS011;14312;52.614;13.496;2023-06-01T13:29:00;3.53;;;2.78;;
26696;SDS011;14312;52.614;13.496;2023-06-01T13:31:46;2.88;;;2.67;;
26696;SDS011;14312;52.614;13.496;2023-06-01T13:34:32;3.65;;;2.92;;
26696;SDS011;14312;52.614;13.496;2023-06-01T13:37:19;4.00;;;3.35;;
26696;SDS011;14312;52.614;13.496;2023-06-01T13:40:05;3.70;;;3.10;;
26696;SDS011;14312;52.614;13.496;2023-06-01T13:42:51;4.72;;;2.65;;
26696;SDS011;14312;52.614;13.496;2023-06-01T13:45:38;3.25;;;2.60;;
26696;SDS011;14312;52.614;13.496;2023-06-01T13:48:24;3.92;;;2.97;;
26696;SDS011;14312;52.614;13.496;2023-06-01T13:51:10;3.13;;;2.85;;
26696;SDS011;14312;52.614;13.496;2023-06-01T13:53:56;3.22;;;2.90;;
26696;SDS011;14312;52.614;13.496;2023-06-01T13:56:43;3.10;;;2.80;;
26696;SDS011;14312;52.614;13.496;2023-06-01T13:59:29;3.00;;;2.72;;
26696;SDS011;14312;52.614;13.496;2023-06-01T14:02:20;5.15;;;3.33;;
26696;SDS011;14312;52.614;13.496;2023-06-01T14:05:06;4.18;;;3.20;;
26696;SDS011;14312;52.614;13.496;2023-06-01T14:07:56;4.80;;;3.13;;
26696;SDS011;14312;52.614;13.496;2023-06-01T14:10:42;3.25;;;2.95;;
26696;SDS011;14312;52.614;13.496;2023-06-01T14:13:28;2.95;;;2.75;;
26696;SDS011;14312;52.614;13.496;2023-06-01T14:16:14;3.40;;;2.90;;
26696;SDS011;14312;52.614;13.496;2023-06-01T14:19:00;3.22;;;2.92;;
26696;SDS011;14312;52.614;13.496;2023-06-01T14:21:46;3.40;;;2.50;;
26696;SDS011;14312;52.614;13.496;2023-06-01T14:24:32;3.95;;;3.20;;
26696;SDS011;14312;52.614;13.496;2023-06-01T14:27:18;3.58;;;3.00;;
26696;SDS011;14312;52.614;13.496;2023-06-01T14:30:06;3.08;;;2.78;;
26696;SDS011;14312;52.614;13.496;2023-06-01T14:32:52;4.60;;;3.30;;
26696;SDS011;14312;52.614;13.496;2023-06-01T14:35:38;5.93;;;3.38;;
26696;SDS011;14312;52.614;13.496;2023-06-01T14:38:24;3.45;;;2.88;;
26696;SDS011;14312;52.614;13.496;2023-06-01T14:41:10;3.53;;;3.15;;
26696;SDS011;14312;52.614;13.496;2023-06-01T14:43:56;4.25;;;3.35;;
26696;SDS011;14312;52.614;13.496;2023-06-01T14:46:42;3.33;;;2.78;;
26696;SDS011;14312;52.614;13.496;2023-06-01T14:49:28;3.38;;;2.78;;
26696;SDS011;14312;52.614;13.496;2023-06-01T14:52:14;3.03;;;2.83;;
26696;SDS011;14312;52.614;13.496;2023-06-01T14:55:00;5.05;;;3.13;;
26696;SDS011;14312;52.614;13.496;2023-06-01T14:57:46;3.58;;;2.90;;
26696;SDS011;14312;52.614;13.496;2023-06-01T15:00:32;2.85;;;2.63;;
26696;SDS011;14312;52.614;13.496;2023-06-01T15:03:18;3.17;;;2.88;;
26696;SDS011;14312;52.614;13.496;2023-06-01T15:06:04;3.92;;;2.60;;
26696;SDS011;14312;52.614;13.496;2023-06-01T15:08:52;3.00;;;2.70;;
26696;SDS011;14312;52.614;13.496;2023-06-01T15:11:38;4.28;;;2.85;;
26696;SDS011;14312;52.614;13.496;2023-06-01T15:14:23;3.25;;;3.00;;
26696;SDS011;14312;52.614;13.496;2023-06-01T15:17:10;3.20;;;2.80;;
26696;SDS011;14312;52.614;13.496;2023-06-01T15:19:56;3.10;;;2.80;;
26696;SDS011;14312;52.614;13.496;2023-06-01T15:22:43;4.90;;;3.10;;
26696;SDS011;14312;52.614;13.496;2023-06-01T15:25:29;3.22;;;2.75;;
26696;SDS011;14312;52.614;13.496;2023-06-01T15:28:15;3.63;;;2.85;;
26696;SDS011;14312;52.614;13.496;2023-06-01T15:31:01;4.35;;;2.80;;
26696;SDS011;14312;52.614;13.496;2023-06-01T15:33:47;3.53;;;3.08;;
26696;SDS011;14312;52.614;13.496;2023-06-01T15:36:33;5.95;;;2.90;;
26696;SDS011;14312;52.614;13.496;2023-06-01T15:39:20;6.50;;;3.20;;
26696;SDS011;14312;52.614;13.496;2023-06-01T15:42:07;3.40;;;2.47;;
26696;SDS011;14312;52.614;13.496;2023-06-01T15:44:55;3.20;;;2.50;;
26696;SDS011;14312;52.614;13.496;2023-06-01T15:47:41;3.45;;;3.10;;
26696;SDS011;14312;52.614;13.496;2023-06-01T15:50:27;4.07;;;2.95;;
26696;SDS011;14312;52.614;13.496;2023-06-01T15:53:13;4.03;;;2.80;;
26696;SDS011;14312;52.614;13.496;2023-06-01T15:55:59;5.32;;;3.03;;
26696;SDS011;14312;52.614;13.496;2023-06-01T15:58:45;3.17;;;2.70;;
26696;SDS011;14312;52.614;13.496;2023-06-01T16:01:35;4.78;;;3.00;;
26696;SDS011;14312;52.614;13.496;2023-06-01T16:04:21;3.03;;;2.72;;
26696;SDS011;14312;52.614;13.496;2023-06-01T16:07:07;2.78;;;2.47;;
26696;SDS011;14312;52.614;13.496;2023-06-01T16:09:53;2.83;;;2.47;;
26696;SDS011;14312;52.614;13.496;2023-06-01T16:12:39;4.03;;;2.83;;
26696;SDS011;14312;52.614;13.496;2023-06-01T16:15:25;2.80;;;2.40;;
26696;SDS011;14312;52.614;13.496;2023-06-01T16:18:12;2.65;;;2.22;;
26696;SDS011;14312;52.614;13.496;2023-06-01T16:20:58;2.70;;;2.25;;
26696;SDS011;14312;52.614;13.496;2023-06-01T16:23:44;2.90;;;2.30;;
26696;SDS011;14312;52.614;13.496;2023-06-01T16:26:30;3.30;;;2.20;;
26696;SDS011;14312;52.614;13.496;2023-06-01T16:29:16;3.42;;;2.40;;
26696;SDS011;14312;52.614;13.496;2023-06-01T16:32:02;3.42;;;2.13;;
26696;SDS011;14312;52.614;13.496;2023-06-01T16:34:48;4.45;;;2.60;;
26696;SDS011;14312;52.614;13.496;2023-06-01T16:37:34;3.60;;;2.40;;
26696;SDS011;14312;52.614;13.496;2023-06-01T16:40:21;3.83;;;2.28;;
26696;SDS011;14312;52.614;13.496;2023-06-01T16:43:07;3.35;;;2.47;;
26696;SDS011;14312;52.614;13.496;2023-06-01T16:45:54;2.97;;;2.33;;
26696;SDS011;14312;52.614;13.496;2023-06-01T16:48:40;2.65;;;2.45;;
26696;SDS011;14312;52.614;13.496;2023-06-01T16:51:27;2.75;;;1.80;;